Schrunz, Liechtenstein
Current Conditions -  °F | °C
As of 11:50 PM on Tuesday 21 Oct 2014 (Local Time) from LSZR Reporting Station
Broken Clouds Broken Clouds  
Wind Chill: 41°   Ceiling: 4600
Heat Index: 46°   Visibility: 6mi
Dew Point: 43°   Wind: 13mph
Humidity: 87%   Direction: 300°WNW
Pressure: 30.03"   Gusts: NA
Location:  47.08°N, 9.93°E
Report Text: LSZR 212150Z AUTO 30011KT 9999 SCT026 SCT039 BKN046 08/06 Q1017
Loading
Personal Weather Stations






























Interactive Weather Map New forecast layout! Learn more

10-Day Weather Forecast

Advertisements
Track Severe Weather on mobile